sensor_id;sensor_type;location;lat;lon;timestamp;P1;durP1;ratioP1;P2;durP2;ratioP2
6412;SDS011;3239;48.714;9.472;2022-07-29T00:00:05;7.03;;;6.43;;
6412;SDS011;3239;48.714;9.472;2022-07-29T00:02:33;8.30;;;7.50;;
6412;SDS011;3239;48.714;9.472;2022-07-29T00:04:59;9.17;;;7.30;;
6412;SDS011;3239;48.714;9.472;2022-07-29T00:07:25;7.00;;;6.33;;
6412;SDS011;3239;48.714;9.472;2022-07-29T00:09:51;10.90;;;7.17;;
6412;SDS011;3239;48.714;9.472;2022-07-29T00:12:17;7.20;;;6.50;;
6412;SDS011;3239;48.714;9.472;2022-07-29T00:14:49;8.73;;;6.67;;
6412;SDS011;3239;48.714;9.472;2022-07-29T00:17:14;7.83;;;6.90;;
6412;SDS011;3239;48.714;9.472;2022-07-29T00:19:40;7.30;;;6.60;;
6412;SDS011;3239;48.714;9.472;2022-07-29T00:22:06;6.73;;;6.13;;
6412;SDS011;3239;48.714;9.472;2022-07-29T00:24:32;7.33;;;6.63;;
6412;SDS011;3239;48.714;9.472;2022-07-29T00:26:57;7.27;;;6.67;;
6412;SDS011;3239;48.714;9.472;2022-07-29T00:29:23;7.67;;;6.67;;
6412;SDS011;3239;48.714;9.472;2022-07-29T00:31:49;7.23;;;6.63;;
6412;SDS011;3239;48.714;9.472;2022-07-29T00:34:15;7.67;;;7.00;;
6412;SDS011;3239;48.714;9.472;2022-07-29T00:36:59;8.97;;;7.93;;
6412;SDS011;3239;48.714;9.472;2022-07-29T00:39:25;8.13;;;7.00;;
6412;SDS011;3239;48.714;9.472;2022-07-29T00:41:51;10.70;;;6.50;;
6412;SDS011;3239;48.714;9.472;2022-07-29T00:44:17;8.63;;;7.93;;
6412;SDS011;3239;48.714;9.472;2022-07-29T00:46:43;9.20;;;8.43;;
6412;SDS011;3239;48.714;9.472;2022-07-29T00:49:08;9.80;;;7.87;;
6412;SDS011;3239;48.714;9.472;2022-07-29T00:51:37;10.37;;;7.87;;
6412;SDS011;3239;48.714;9.472;2022-07-29T00:54:04;10.07;;;8.10;;
6412;SDS011;3239;48.714;9.472;2022-07-29T00:56:31;8.27;;;7.50;;
6412;SDS011;3239;48.714;9.472;2022-07-29T00:58:58;9.73;;;7.17;;
6412;SDS011;3239;48.714;9.472;2022-07-29T01:01:24;8.47;;;7.67;;
6412;SDS011;3239;48.714;9.472;2022-07-29T01:03:52;8.83;;;7.40;;
6412;SDS011;3239;48.714;9.472;2022-07-29T01:06:18;7.47;;;6.73;;
6412;SDS011;3239;48.714;9.472;2022-07-29T01:08:45;8.37;;;7.63;;
6412;SDS011;3239;48.714;9.472;2022-07-29T01:11:12;8.63;;;7.83;;
6412;SDS011;3239;48.714;9.472;2022-07-29T01:13:41;8.80;;;8.00;;
6412;SDS011;3239;48.714;9.472;2022-07-29T01:16:18;8.30;;;7.50;;
6412;SDS011;3239;48.714;9.472;2022-07-29T01:18:56;7.97;;;7.17;;
6412;SDS011;3239;48.714;9.472;2022-07-29T01:30:50;7.27;;;6.60;;
6412;SDS011;3239;48.714;9.472;2022-07-29T01:33:18;7.70;;;6.40;;
6412;SDS011;3239;48.714;9.472;2022-07-29T01:36:10;7.90;;;7.10;;
6412;SDS011;3239;48.714;9.472;2022-07-29T01:38:42;8.80;;;7.23;;
6412;SDS011;3239;48.714;9.472;2022-07-29T01:41:14;9.23;;;7.00;;
6412;SDS011;3239;48.714;9.472;2022-07-29T01:43:46;7.07;;;6.50;;
6412;SDS011;3239;48.714;9.472;2022-07-29T01:46:27;6.40;;;5.80;;
6412;SDS011;3239;48.714;9.472;2022-07-29T01:49:05;6.13;;;5.57;;
6412;SDS011;3239;48.714;9.472;2022-07-29T01:51:46;6.17;;;5.63;;
6412;SDS011;3239;48.714;9.472;2022-07-29T01:57:02;7.33;;;5.67;;
6412;SDS011;3239;48.714;9.472;2022-07-29T01:59:32;6.97;;;6.30;;
6412;SDS011;3239;48.714;9.472;2022-07-29T02:01:59;6.10;;;5.70;;
6412;SDS011;3239;48.714;9.472;2022-07-29T02:04:28;8.67;;;6.47;;
6412;SDS011;3239;48.714;9.472;2022-07-29T02:06:58;6.37;;;5.70;;
6412;SDS011;3239;48.714;9.472;2022-07-29T02:09:30;6.80;;;6.30;;
6412;SDS011;3239;48.714;9.472;2022-07-29T02:11:59;6.80;;;5.27;;
6412;SDS011;3239;48.714;9.472;2022-07-29T02:14:28;6.43;;;5.67;;
6412;SDS011;3239;48.714;9.472;2022-07-29T02:17:08;6.17;;;5.67;;
6412;SDS011;3239;48.714;9.472;2022-07-29T02:19:37;6.03;;;5.37;;
6412;SDS011;3239;48.714;9.472;2022-07-29T02:22:05;6.10;;;5.50;;
6412;SDS011;3239;48.714;9.472;2022-07-29T02:24:32;5.70;;;5.10;;
6412;SDS011;3239;48.714;9.472;2022-07-29T02:27:00;6.73;;;6.13;;
6412;SDS011;3239;48.714;9.472;2022-07-29T02:29:28;8.23;;;6.37;;
6412;SDS011;3239;48.714;9.472;2022-07-29T02:31:56;9.80;;;7.00;;
6412;SDS011;3239;48.714;9.472;2022-07-29T02:34:24;6.50;;;6.00;;
6412;SDS011;3239;48.714;9.472;2022-07-29T02:36:51;11.43;;;7.03;;
6412;SDS011;3239;48.714;9.472;2022-07-29T02:39:19;7.40;;;6.70;;
6412;SDS011;3239;48.714;9.472;2022-07-29T02:41:48;7.63;;;7.03;;
6412;SDS011;3239;48.714;9.472;2022-07-29T02:44:24;8.53;;;7.67;;
6412;SDS011;3239;48.714;9.472;2022-07-29T02:49:53;8.47;;;7.63;;
6412;SDS011;3239;48.714;9.472;2022-07-29T02:52:30;9.03;;;8.13;;
6412;SDS011;3239;48.714;9.472;2022-07-29T03:01:17;9.13;;;7.53;;
6412;SDS011;3239;48.714;9.472;2022-07-29T03:03:48;8.97;;;8.17;;
6412;SDS011;3239;48.714;9.472;2022-07-29T03:06:17;8.10;;;7.30;;
6412;SDS011;3239;48.714;9.472;2022-07-29T03:08:45;8.47;;;7.77;;
6412;SDS011;3239;48.714;9.472;2022-07-29T03:11:12;10.13;;;7.97;;
6412;SDS011;3239;48.714;9.472;2022-07-29T03:13:39;12.10;;;8.90;;
6412;SDS011;3239;48.714;9.472;2022-07-29T03:16:06;12.27;;;8.00;;
6412;SDS011;3239;48.714;9.472;2022-07-29T03:18:34;8.67;;;7.87;;
6412;SDS011;3239;48.714;9.472;2022-07-29T03:21:01;11.20;;;8.87;;
6412;SDS011;3239;48.714;9.472;2022-07-29T03:23:28;8.60;;;7.90;;
6412;SDS011;3239;48.714;9.472;2022-07-29T03:25:54;7.83;;;7.23;;
6412;SDS011;3239;48.714;9.472;2022-07-29T03:28:20;8.07;;;7.27;;
6412;SDS011;3239;48.714;9.472;2022-07-29T03:30:47;8.07;;;6.80;;
6412;SDS011;3239;48.714;9.472;2022-07-29T03:33:14;8.07;;;7.47;;
6412;SDS011;3239;48.714;9.472;2022-07-29T03:35:40;10.77;;;8.17;;
6412;SDS011;3239;48.714;9.472;2022-07-29T03:38:06;9.87;;;8.40;;
6412;SDS011;3239;48.714;9.472;2022-07-29T03:40:37;8.90;;;8.00;;
6412;SDS011;3239;48.714;9.472;2022-07-29T03:43:11;7.97;;;7.33;;
6412;SDS011;3239;48.714;9.472;2022-07-29T03:45:41;8.20;;;7.50;;
6412;SDS011;3239;48.714;9.472;2022-07-29T03:48:12;9.33;;;8.40;;
6412;SDS011;3239;48.714;9.472;2022-07-29T03:50:41;10.43;;;7.60;;
6412;SDS011;3239;48.714;9.472;2022-07-29T03:53:07;11.23;;;7.20;;
6412;SDS011;3239;48.714;9.472;2022-07-29T03:55:36;8.10;;;7.50;;
6412;SDS011;3239;48.714;9.472;2022-07-29T03:58:07;7.70;;;7.03;;
6412;SDS011;3239;48.714;9.472;2022-07-29T04:00:34;7.90;;;7.10;;
6412;SDS011;3239;48.714;9.472;2022-07-29T04:03:01;8.40;;;7.63;;
6412;SDS011;3239;48.714;9.472;2022-07-29T04:05:28;7.97;;;7.20;;
6412;SDS011;3239;48.714;9.472;2022-07-29T04:07:54;8.20;;;7.60;;
6412;SDS011;3239;48.714;9.472;2022-07-29T04:10:20;8.47;;;7.67;;
6412;SDS011;3239;48.714;9.472;2022-07-29T04:12:46;8.50;;;7.00;;
6412;SDS011;3239;48.714;9.472;2022-07-29T04:15:11;8.03;;;6.40;;
6412;SDS011;3239;48.714;9.472;2022-07-29T04:17:37;7.03;;;6.40;;
6412;SDS011;3239;48.714;9.472;2022-07-29T04:20:03;8.40;;;6.60;;
6412;SDS011;3239;48.714;9.472;2022-07-29T04:22:30;7.70;;;6.90;;
6412;SDS011;3239;48.714;9.472;2022-07-29T04:24:55;7.90;;;7.20;;
6412;SDS011;3239;48.714;9.472;2022-07-29T04:27:21;8.90;;;6.70;;
6412;SDS011;3239;48.714;9.472;2022-07-29T04:29:47;7.30;;;6.70;;
6412;SDS011;3239;48.714;9.472;2022-07-29T04:32:12;10.07;;;6.90;;
6412;SDS011;3239;48.714;9.472;2022-07-29T04:34:38;7.90;;;7.10;;
6412;SDS011;3239;48.714;9.472;2022-07-29T04:37:04;6.63;;;5.97;;
6412;SDS011;3239;48.714;9.472;2022-07-29T04:39:30;7.10;;;6.40;;
6412;SDS011;3239;48.714;9.472;2022-07-29T04:41:55;8.37;;;6.37;;
6412;SDS011;3239;48.714;9.472;2022-07-29T04:44:21;11.37;;;6.43;;
6412;SDS011;3239;48.714;9.472;2022-07-29T04:46:47;7.10;;;6.50;;
6412;SDS011;3239;48.714;9.472;2022-07-29T04:49:13;8.93;;;6.93;;
6412;SDS011;3239;48.714;9.472;2022-07-29T04:51:38;6.83;;;6.23;;
6412;SDS011;3239;48.714;9.472;2022-07-29T04:54:04;7.60;;;6.90;;
6412;SDS011;3239;48.714;9.472;2022-07-29T04:56:31;7.53;;;6.77;;
6412;SDS011;3239;48.714;9.472;2022-07-29T04:58:57;7.20;;;6.27;;
6412;SDS011;3239;48.714;9.472;2022-07-29T05:01:22;6.20;;;5.80;;
6412;SDS011;3239;48.714;9.472;2022-07-29T05:03:48;7.53;;;6.23;;
6412;SDS011;3239;48.714;9.472;2022-07-29T05:06:14;8.53;;;4.90;;
6412;SDS011;3239;48.714;9.472;2022-07-29T05:08:40;5.70;;;5.20;;
6412;SDS011;3239;48.714;9.472;2022-07-29T05:11:05;5.87;;;5.37;;
6412;SDS011;3239;48.714;9.472;2022-07-29T05:13:31;5.90;;;5.50;;
6412;SDS011;3239;48.714;9.472;2022-07-29T05:15:57;5.37;;;4.97;;
6412;SDS011;3239;48.714;9.472;2022-07-29T05:18:23;6.23;;;5.60;;
6412;SDS011;3239;48.714;9.472;2022-07-29T05:20:53;6.60;;;5.80;;
6412;SDS011;3239;48.714;9.472;2022-07-29T05:23:19;5.43;;;4.93;;
6412;SDS011;3239;48.714;9.472;2022-07-29T05:25:45;5.87;;;5.20;;
6412;SDS011;3239;48.714;9.472;2022-07-29T05:28:11;7.03;;;5.63;;
6412;SDS011;3239;48.714;9.472;2022-07-29T05:30:37;6.97;;;6.37;;
6412;SDS011;3239;48.714;9.472;2022-07-29T05:33:03;5.50;;;5.03;;
6412;SDS011;3239;48.714;9.472;2022-07-29T05:35:29;6.13;;;5.53;;
6412;SDS011;3239;48.714;9.472;2022-07-29T05:37:55;5.50;;;5.10;;
6412;SDS011;3239;48.714;9.472;2022-07-29T05:40:20;5.00;;;4.70;;
6412;SDS011;3239;48.714;9.472;2022-07-29T05:42:46;6.03;;;5.60;;
6412;SDS011;3239;48.714;9.472;2022-07-29T05:45:12;8.93;;;5.87;;
6412;SDS011;3239;48.714;9.472;2022-07-29T05:47:38;5.70;;;5.30;;
6412;SDS011;3239;48.714;9.472;2022-07-29T05:50:03;9.23;;;5.77;;
6412;SDS011;3239;48.714;9.472;2022-07-29T05:52:30;7.13;;;6.10;;
6412;SDS011;3239;48.714;9.472;2022-07-29T05:54:56;7.30;;;6.60;;
6412;SDS011;3239;48.714;9.472;2022-07-29T05:57:22;7.47;;;6.80;;
6412;SDS011;3239;48.714;9.472;2022-07-29T05:59:49;6.33;;;5.53;;
6412;SDS011;3239;48.714;9.472;2022-07-29T06:02:16;6.00;;;5.50;;
6412;SDS011;3239;48.714;9.472;2022-07-29T06:04:42;7.27;;;6.57;;
6412;SDS011;3239;48.714;9.472;2022-07-29T06:07:08;8.07;;;6.70;;
6412;SDS011;3239;48.714;9.472;2022-07-29T06:09:34;10.27;;;6.50;;
6412;SDS011;3239;48.714;9.472;2022-07-29T06:12:00;7.40;;;5.90;;
6412;SDS011;3239;48.714;9.472;2022-07-29T06:14:26;10.00;;;5.77;;
6412;SDS011;3239;48.714;9.472;2022-07-29T06:16:53;6.87;;;5.17;;
6412;SDS011;3239;48.714;9.472;2022-07-29T06:19:19;4.83;;;4.53;;
6412;SDS011;3239;48.714;9.472;2022-07-29T06:21:45;10.80;;;5.00;;
6412;SDS011;3239;48.714;9.472;2022-07-29T06:24:12;5.13;;;4.50;;
6412;SDS011;3239;48.714;9.472;2022-07-29T06:26:39;5.27;;;4.30;;
6412;SDS011;3239;48.714;9.472;2022-07-29T06:29:06;7.67;;;5.50;;
6412;SDS011;3239;48.714;9.472;2022-07-29T06:31:32;6.07;;;5.57;;
6412;SDS011;3239;48.714;9.472;2022-07-29T06:33:58;7.57;;;4.60;;
6412;SDS011;3239;48.714;9.472;2022-07-29T06:36:24;5.13;;;4.63;;
6412;SDS011;3239;48.714;9.472;2022-07-29T06:38:49;8.33;;;4.93;;
6412;SDS011;3239;48.714;9.472;2022-07-29T06:41:15;5.90;;;5.40;;
6412;SDS011;3239;48.714;9.472;2022-07-29T06:43:42;6.33;;;5.23;;
6412;SDS011;3239;48.714;9.472;2022-07-29T06:46:10;9.73;;;5.10;;
6412;SDS011;3239;48.714;9.472;2022-07-29T06:48:41;6.60;;;4.27;;
6412;SDS011;3239;48.714;9.472;2022-07-29T06:51:08;5.80;;;4.50;;
6412;SDS011;3239;48.714;9.472;2022-07-29T06:53:36;6.73;;;4.83;;
6412;SDS011;3239;48.714;9.472;2022-07-29T06:56:04;4.77;;;4.07;;
6412;SDS011;3239;48.714;9.472;2022-07-29T06:58:33;9.53;;;4.30;;
6412;SDS011;3239;48.714;9.472;2022-07-29T07:01:01;5.00;;;4.27;;
6412;SDS011;3239;48.714;9.472;2022-07-29T07:03:29;3.97;;;3.57;;
6412;SDS011;3239;48.714;9.472;2022-07-29T07:05:55;5.30;;;3.70;;
6412;SDS011;3239;48.714;9.472;2022-07-29T07:08:21;4.40;;;4.00;;
6412;SDS011;3239;48.714;9.472;2022-07-29T07:10:48;6.67;;;4.40;;
6412;SDS011;3239;48.714;9.472;2022-07-29T07:13:15;5.60;;;3.70;;
6412;SDS011;3239;48.714;9.472;2022-07-29T07:15:42;3.30;;;3.00;;
6412;SDS011;3239;48.714;9.472;2022-07-29T07:18:10;4.10;;;3.23;;
6412;SDS011;3239;48.714;9.472;2022-07-29T07:20:36;4.67;;;3.63;;
6412;SDS011;3239;48.714;9.472;2022-07-29T07:23:02;6.40;;;3.47;;
6412;SDS011;3239;48.714;9.472;2022-07-29T07:25:29;5.10;;;3.43;;
6412;SDS011;3239;48.714;9.472;2022-07-29T07:27:55;5.27;;;3.20;;
6412;SDS011;3239;48.714;9.472;2022-07-29T07:30:21;9.53;;;3.50;;
6412;SDS011;3239;48.714;9.472;2022-07-29T07:32:47;5.30;;;3.77;;
6412;SDS011;3239;48.714;9.472;2022-07-29T07:35:13;4.10;;;3.57;;
6412;SDS011;3239;48.714;9.472;2022-07-29T07:37:39;3.43;;;3.13;;
6412;SDS011;3239;48.714;9.472;2022-07-29T07:40:05;3.30;;;3.00;;
6412;SDS011;3239;48.714;9.472;2022-07-29T07:42:33;5.77;;;3.27;;
6412;SDS011;3239;48.714;9.472;2022-07-29T07:44:59;3.13;;;2.83;;
6412;SDS011;3239;48.714;9.472;2022-07-29T07:47:25;3.63;;;2.47;;
6412;SDS011;3239;48.714;9.472;2022-07-29T07:49:51;5.80;;;3.43;;
6412;SDS011;3239;48.714;9.472;2022-07-29T07:52:19;4.97;;;3.10;;
6412;SDS011;3239;48.714;9.472;2022-07-29T07:54:46;3.70;;;2.90;;
6412;SDS011;3239;48.714;9.472;2022-07-29T07:57:14;5.10;;;3.17;;
6412;SDS011;3239;48.714;9.472;2022-07-29T07:59:40;3.53;;;2.70;;
6412;SDS011;3239;48.714;9.472;2022-07-29T08:02:07;3.10;;;2.50;;
6412;SDS011;3239;48.714;9.472;2022-07-29T08:04:34;4.20;;;2.67;;
6412;SDS011;3239;48.714;9.472;2022-07-29T08:07:01;3.50;;;2.70;;
6412;SDS011;3239;48.714;9.472;2022-07-29T08:09:27;4.33;;;1.97;;
6412;SDS011;3239;48.714;9.472;2022-07-29T08:11:54;3.60;;;2.23;;
6412;SDS011;3239;48.714;9.472;2022-07-29T08:14:20;3.77;;;2.50;;
6412;SDS011;3239;48.714;9.472;2022-07-29T08:16:47;5.40;;;2.90;;
6412;SDS011;3239;48.714;9.472;2022-07-29T08:19:13;3.60;;;2.40;;
6412;SDS011;3239;48.714;9.472;2022-07-29T08:21:38;3.20;;;2.80;;
6412;SDS011;3239;48.714;9.472;2022-07-29T08:24:04;3.60;;;2.80;;
6412;SDS011;3239;48.714;9.472;2022-07-29T08:26:50;3.67;;;2.37;;
6412;SDS011;3239;48.714;9.472;2022-07-29T08:29:16;3.20;;;2.80;;
6412;SDS011;3239;48.714;9.472;2022-07-29T08:31:41;4.03;;;2.13;;
6412;SDS011;3239;48.714;9.472;2022-07-29T08:34:08;2.33;;;2.03;;
6412;SDS011;3239;48.714;9.472;2022-07-29T08:36:34;4.83;;;2.70;;
6412;SDS011;3239;48.714;9.472;2022-07-29T08:39:00;5.17;;;2.70;;
6412;SDS011;3239;48.714;9.472;2022-07-29T08:41:27;7.23;;;2.73;;
6412;SDS011;3239;48.714;9.472;2022-07-29T08:43:53;4.37;;;2.60;;
6412;SDS011;3239;48.714;9.472;2022-07-29T08:46:19;3.23;;;2.37;;
6412;SDS011;3239;48.714;9.472;2022-07-29T08:48:46;3.73;;;2.60;;
6412;SDS011;3239;48.714;9.472;2022-07-29T08:51:17;8.20;;;3.00;;
6412;SDS011;3239;48.714;9.472;2022-07-29T08:53:46;6.77;;;2.80;;
6412;SDS011;3239;48.714;9.472;2022-07-29T08:56:14;3.23;;;2.80;;
6412;SDS011;3239;48.714;9.472;2022-07-29T08:58:43;3.50;;;2.73;;
6412;SDS011;3239;48.714;9.472;2022-07-29T09:01:10;8.50;;;2.83;;
6412;SDS011;3239;48.714;9.472;2022-07-29T09:03:37;2.97;;;2.60;;
6412;SDS011;3239;48.714;9.472;2022-07-29T09:06:04;7.90;;;2.70;;
6412;SDS011;3239;48.714;9.472;2022-07-29T09:08:31;3.80;;;2.67;;
6412;SDS011;3239;48.714;9.472;2022-07-29T09:10:58;11.73;;;2.87;;
6412;SDS011;3239;48.714;9.472;2022-07-29T09:13:26;4.87;;;2.73;;
6412;SDS011;3239;48.714;9.472;2022-07-29T09:15:52;6.70;;;2.50;;
6412;SDS011;3239;48.714;9.472;2022-07-29T09:18:34;7.77;;;2.73;;
6412;SDS011;3239;48.714;9.472;2022-07-29T09:21:02;3.17;;;2.77;;
6412;SDS011;3239;48.714;9.472;2022-07-29T09:26:37;3.33;;;2.73;;
6412;SDS011;3239;48.714;9.472;2022-07-29T09:29:08;3.40;;;2.70;;
6412;SDS011;3239;48.714;9.472;2022-07-29T09:31:39;3.87;;;3.10;;
6412;SDS011;3239;48.714;9.472;2022-07-29T09:34:08;5.30;;;2.77;;
6412;SDS011;3239;48.714;9.472;2022-07-29T09:36:39;6.00;;;2.57;;
6412;SDS011;3239;48.714;9.472;2022-07-29T09:39:07;4.40;;;2.30;;
6412;SDS011;3239;48.714;9.472;2022-07-29T09:41:53;5.83;;;2.60;;
6412;SDS011;3239;48.714;9.472;2022-07-29T09:44:21;2.93;;;2.17;;
6412;SDS011;3239;48.714;9.472;2022-07-29T09:46:54;4.90;;;2.97;;
6412;SDS011;3239;48.714;9.472;2022-07-29T09:49:31;3.80;;;2.63;;
6412;SDS011;3239;48.714;9.472;2022-07-29T09:52:05;8.43;;;2.60;;
6412;SDS011;3239;48.714;9.472;2022-07-29T09:54:34;3.87;;;2.53;;
6412;SDS011;3239;48.714;9.472;2022-07-29T09:57:04;4.93;;;2.77;;
6412;SDS011;3239;48.714;9.472;2022-07-29T09:59:34;4.83;;;2.63;;
6412;SDS011;3239;48.714;9.472;2022-07-29T10:02:00;4.27;;;2.53;;
6412;SDS011;3239;48.714;9.472;2022-07-29T10:04:36;2.73;;;2.53;;
6412;SDS011;3239;48.714;9.472;2022-07-29T10:07:06;3.37;;;2.70;;
6412;SDS011;3239;48.714;9.472;2022-07-29T10:09:33;4.07;;;2.77;;
6412;SDS011;3239;48.714;9.472;2022-07-29T10:12:08;3.87;;;2.60;;
6412;SDS011;3239;48.714;9.472;2022-07-29T10:14:38;4.20;;;2.83;;
6412;SDS011;3239;48.714;9.472;2022-07-29T10:17:06;3.00;;;2.70;;
6412;SDS011;3239;48.714;9.472;2022-07-29T10:19:33;4.20;;;3.10;;
6412;SDS011;3239;48.714;9.472;2022-07-29T10:22:02;7.53;;;3.53;;
6412;SDS011;3239;48.714;9.472;2022-07-29T10:24:31;4.97;;;2.77;;
6412;SDS011;3239;48.714;9.472;2022-07-29T10:26:59;8.30;;;3.27;;
6412;SDS011;3239;48.714;9.472;2022-07-29T10:29:27;4.10;;;2.87;;
6412;SDS011;3239;48.714;9.472;2022-07-29T10:46:39;2.90;;;2.70;;
6412;SDS011;3239;48.714;9.472;2022-07-29T10:49:13;6.13;;;2.67;;
6412;SDS011;3239;48.714;9.472;2022-07-29T10:51:50;5.47;;;3.20;;
6412;SDS011;3239;48.714;9.472;2022-07-29T11:05:08;3.57;;;3.07;;
6412;SDS011;3239;48.714;9.472;2022-07-29T11:07:40;3.40;;;3.10;;
6412;SDS011;3239;48.714;9.472;2022-07-29T11:10:44;3.70;;;2.70;;
6412;SDS011;3239;48.714;9.472;2022-07-29T11:13:10;3.47;;;3.17;;
6412;SDS011;3239;48.714;9.472;2022-07-29T11:15:55;6.30;;;2.87;;
6412;SDS011;3239;48.714;9.472;2022-07-29T11:18:23;3.33;;;3.03;;
6412;SDS011;3239;48.714;9.472;2022-07-29T11:20:49;5.70;;;3.10;;
6412;SDS011;3239;48.714;9.472;2022-07-29T11:28:39;2.93;;;2.47;;
6412;SDS011;3239;48.714;9.472;2022-07-29T11:31:30;3.10;;;2.50;;
6412;SDS011;3239;48.714;9.472;2022-07-29T11:34:15;7.53;;;2.93;;
6412;SDS011;3239;48.714;9.472;2022-07-29T11:44:57;4.30;;;3.20;;
6412;SDS011;3239;48.714;9.472;2022-07-29T11:47:47;3.60;;;2.40;;
6412;SDS011;3239;48.714;9.472;2022-07-29T11:50:37;6.23;;;2.80;;
6412;SDS011;3239;48.714;9.472;2022-07-29T11:53:09;5.10;;;2.00;;
6412;SDS011;3239;48.714;9.472;2022-07-29T11:55:40;4.77;;;1.97;;
6412;SDS011;3239;48.714;9.472;2022-07-29T11:58:07;3.80;;;2.10;;
6412;SDS011;3239;48.714;9.472;2022-07-29T12:00:34;4.43;;;2.10;;
6412;SDS011;3239;48.714;9.472;2022-07-29T12:03:05;3.90;;;2.10;;
6412;SDS011;3239;48.714;9.472;2022-07-29T12:05:34;4.43;;;2.27;;
6412;SDS011;3239;48.714;9.472;2022-07-29T12:08:05;8.00;;;2.07;;
6412;SDS011;3239;48.714;9.472;2022-07-29T12:10:51;4.37;;;2.60;;
6412;SDS011;3239;48.714;9.472;2022-07-29T12:13:18;3.37;;;1.73;;
6412;SDS011;3239;48.714;9.472;2022-07-29T12:15:55;3.17;;;1.87;;
6412;SDS011;3239;48.714;9.472;2022-07-29T12:18:23;2.90;;;2.20;;
6412;SDS011;3239;48.714;9.472;2022-07-29T12:20:56;2.50;;;2.20;;
6412;SDS011;3239;48.714;9.472;2022-07-29T12:23:30;6.53;;;2.30;;
6412;SDS011;3239;48.714;9.472;2022-07-29T12:25:57;4.53;;;2.80;;
6412;SDS011;3239;48.714;9.472;2022-07-29T12:28:24;6.20;;;2.70;;
6412;SDS011;3239;48.714;9.472;2022-07-29T12:30:51;4.80;;;2.83;;
6412;SDS011;3239;48.714;9.472;2022-07-29T12:35:56;4.37;;;2.73;;
6412;SDS011;3239;48.714;9.472;2022-07-29T12:38:25;8.57;;;3.47;;
6412;SDS011;3239;48.714;9.472;2022-07-29T12:40:52;12.00;;;3.50;;
6412;SDS011;3239;48.714;9.472;2022-07-29T12:43:19;4.90;;;2.67;;
6412;SDS011;3239;48.714;9.472;2022-07-29T12:45:49;5.00;;;2.60;;
6412;SDS011;3239;48.714;9.472;2022-07-29T12:48:33;5.20;;;1.93;;
6412;SDS011;3239;48.714;9.472;2022-07-29T12:51:00;6.17;;;2.63;;
6412;SDS011;3239;48.714;9.472;2022-07-29T12:53:27;3.60;;;2.50;;
6412;SDS011;3239;48.714;9.472;2022-07-29T12:55:54;5.17;;;2.80;;
6412;SDS011;3239;48.714;9.472;2022-07-29T13:01:05;2.70;;;1.90;;
6412;SDS011;3239;48.714;9.472;2022-07-29T13:03:44;4.90;;;2.20;;
6412;SDS011;3239;48.714;9.472;2022-07-29T13:11:45;2.27;;;1.53;;
6412;SDS011;3239;48.714;9.472;2022-07-29T13:14:14;2.47;;;1.50;;
6412;SDS011;3239;48.714;9.472;2022-07-29T13:19:41;5.60;;;1.80;;
6412;SDS011;3239;48.714;9.472;2022-07-29T13:22:15;6.33;;;2.33;;
6412;SDS011;3239;48.714;9.472;2022-07-29T13:27:31;2.80;;;2.30;;
6412;SDS011;3239;48.714;9.472;2022-07-29T13:29:59;4.27;;;1.80;;
6412;SDS011;3239;48.714;9.472;2022-07-29T13:32:29;5.50;;;2.00;;
6412;SDS011;3239;48.714;9.472;2022-07-29T13:34:56;5.07;;;2.33;;
6412;SDS011;3239;48.714;9.472;2022-07-29T13:37:25;2.40;;;2.03;;
6412;SDS011;3239;48.714;9.472;2022-07-29T13:39:51;7.13;;;2.37;;
6412;SDS011;3239;48.714;9.472;2022-07-29T13:42:19;5.23;;;2.00;;
6412;SDS011;3239;48.714;9.472;2022-07-29T13:44:44;3.40;;;1.90;;
6412;SDS011;3239;48.714;9.472;2022-07-29T13:47:10;2.03;;;1.83;;
6412;SDS011;3239;48.714;9.472;2022-07-29T13:49:36;3.10;;;2.13;;
6412;SDS011;3239;48.714;9.472;2022-07-29T13:52:02;5.90;;;2.30;;
6412;SDS011;3239;48.714;9.472;2022-07-29T13:54:32;2.17;;;1.93;;
6412;SDS011;3239;48.714;9.472;2022-07-29T13:56:58;2.90;;;2.10;;
6412;SDS011;3239;48.714;9.472;2022-07-29T13:59:23;2.70;;;1.93;;
6412;SDS011;3239;48.714;9.472;2022-07-29T14:01:49;3.00;;;2.67;;
6412;SDS011;3239;48.714;9.472;2022-07-29T14:04:15;2.60;;;2.10;;
6412;SDS011;3239;48.714;9.472;2022-07-29T14:06:41;4.93;;;2.77;;
6412;SDS011;3239;48.714;9.472;2022-07-29T14:09:07;4.80;;;2.97;;
6412;SDS011;3239;48.714;9.472;2022-07-29T14:11:35;5.00;;;3.43;;
6412;SDS011;3239;48.714;9.472;2022-07-29T14:14:03;3.57;;;2.67;;
6412;SDS011;3239;48.714;9.472;2022-07-29T14:16:29;4.87;;;2.80;;
6412;SDS011;3239;48.714;9.472;2022-07-29T14:18:55;4.87;;;3.07;;
6412;SDS011;3239;48.714;9.472;2022-07-29T14:21:21;4.10;;;3.20;;
6412;SDS011;3239;48.714;9.472;2022-07-29T14:23:47;3.13;;;2.83;;
6412;SDS011;3239;48.714;9.472;2022-07-29T14:26:12;3.43;;;2.60;;
6412;SDS011;3239;48.714;9.472;2022-07-29T14:28:38;4.00;;;3.13;;
6412;SDS011;3239;48.714;9.472;2022-07-29T14:31:04;5.47;;;3.00;;
6412;SDS011;3239;48.714;9.472;2022-07-29T14:33:30;4.73;;;2.90;;
6412;SDS011;3239;48.714;9.472;2022-07-29T14:35:56;3.00;;;2.80;;
6412;SDS011;3239;48.714;9.472;2022-07-29T14:38:22;3.47;;;2.97;;
6412;SDS011;3239;48.714;9.472;2022-07-29T14:40:47;4.50;;;3.20;;
6412;SDS011;3239;48.714;9.472;2022-07-29T14:43:13;3.53;;;2.40;;
6412;SDS011;3239;48.714;9.472;2022-07-29T14:45:39;4.00;;;2.70;;
6412;SDS011;3239;48.714;9.472;2022-07-29T14:48:05;4.30;;;2.97;;
6412;SDS011;3239;48.714;9.472;2022-07-29T14:50:31;4.67;;;2.90;;
6412;SDS011;3239;48.714;9.472;2022-07-29T14:52:58;3.40;;;3.10;;
6412;SDS011;3239;48.714;9.472;2022-07-29T14:55:25;4.90;;;2.70;;
6412;SDS011;3239;48.714;9.472;2022-07-29T14:57:51;5.70;;;2.70;;
6412;SDS011;3239;48.714;9.472;2022-07-29T15:00:17;3.70;;;2.83;;
6412;SDS011;3239;48.714;9.472;2022-07-29T15:02:43;4.70;;;2.70;;
6412;SDS011;3239;48.714;9.472;2022-07-29T15:05:09;3.70;;;2.80;;
6412;SDS011;3239;48.714;9.472;2022-07-29T15:07:34;3.03;;;2.20;;
6412;SDS011;3239;48.714;9.472;2022-07-29T15:10:00;3.83;;;2.87;;
6412;SDS011;3239;48.714;9.472;2022-07-29T15:12:27;4.10;;;2.50;;
6412;SDS011;3239;48.714;9.472;2022-07-29T15:14:52;6.70;;;3.10;;
6412;SDS011;3239;48.714;9.472;2022-07-29T15:17:18;3.23;;;2.93;;
6412;SDS011;3239;48.714;9.472;2022-07-29T15:19:45;4.80;;;3.00;;
6412;SDS011;3239;48.714;9.472;2022-07-29T15:22:11;5.50;;;3.07;;
6412;SDS011;3239;48.714;9.472;2022-07-29T15:24:36;7.33;;;2.57;;
6412;SDS011;3239;48.714;9.472;2022-07-29T15:27:02;2.83;;;2.53;;
6412;SDS011;3239;48.714;9.472;2022-07-29T15:29:28;5.60;;;2.97;;
6412;SDS011;3239;48.714;9.472;2022-07-29T15:31:54;3.73;;;2.70;;
6412;SDS011;3239;48.714;9.472;2022-07-29T15:34:20;3.53;;;3.03;;
6412;SDS011;3239;48.714;9.472;2022-07-29T15:36:46;4.07;;;3.30;;
6412;SDS011;3239;48.714;9.472;2022-07-29T15:39:11;5.70;;;3.70;;
6412;SDS011;3239;48.714;9.472;2022-07-29T15:41:37;4.77;;;3.30;;
6412;SDS011;3239;48.714;9.472;2022-07-29T15:44:03;8.67;;;3.47;;
6412;SDS011;3239;48.714;9.472;2022-07-29T15:46:29;3.70;;;2.90;;
6412;SDS011;3239;48.714;9.472;2022-07-29T15:49:13;4.07;;;3.07;;
6412;SDS011;3239;48.714;9.472;2022-07-29T15:51:39;3.83;;;2.87;;
6412;SDS011;3239;48.714;9.472;2022-07-29T15:54:05;3.40;;;2.83;;
6412;SDS011;3239;48.714;9.472;2022-07-29T15:56:30;5.10;;;3.07;;
6412;SDS011;3239;48.714;9.472;2022-07-29T15:58:56;4.90;;;3.00;;
6412;SDS011;3239;48.714;9.472;2022-07-29T16:01:23;4.83;;;3.20;;
6412;SDS011;3239;48.714;9.472;2022-07-29T16:03:48;3.40;;;3.10;;
6412;SDS011;3239;48.714;9.472;2022-07-29T16:06:14;4.23;;;2.77;;
6412;SDS011;3239;48.714;9.472;2022-07-29T16:08:40;3.90;;;2.90;;
6412;SDS011;3239;48.714;9.472;2022-07-29T16:11:06;3.93;;;2.60;;
6412;SDS011;3239;48.714;9.472;2022-07-29T16:13:32;4.20;;;2.30;;
6412;SDS011;3239;48.714;9.472;2022-07-29T16:15:58;3.30;;;2.30;;
6412;SDS011;3239;48.714;9.472;2022-07-29T16:18:24;3.00;;;2.60;;
6412;SDS011;3239;48.714;9.472;2022-07-29T16:20:49;6.80;;;2.60;;
6412;SDS011;3239;48.714;9.472;2022-07-29T16:23:15;2.80;;;2.00;;
6412;SDS011;3239;48.714;9.472;2022-07-29T16:25:41;3.57;;;2.50;;
6412;SDS011;3239;48.714;9.472;2022-07-29T16:28:07;2.53;;;2.10;;
6412;SDS011;3239;48.714;9.472;2022-07-29T16:30:36;2.77;;;2.40;;
6412;SDS011;3239;48.714;9.472;2022-07-29T16:33:02;3.77;;;2.40;;
6412;SDS011;3239;48.714;9.472;2022-07-29T16:35:28;3.60;;;2.70;;
6412;SDS011;3239;48.714;9.472;2022-07-29T16:37:57;3.70;;;2.20;;
6412;SDS011;3239;48.714;9.472;2022-07-29T16:40:23;3.70;;;2.53;;